Time;durP1;ratioP1;P1;durP2;ratioP2;P2;SDS_P1;SDS_P2;PMS_P1;PMS_P2;Temp;Humidity;BMP_temperature;BMP_pressure;BME280_temperature;BME280_humidity;BME280_pressure;Samples;Min_cycle;Max_cycle;Signal;HPM_P1;HPM_P2
2021/11/23 00:02:03;;;;;;;8.53;6.20;;;;;;;5.94;73.91;100213.69;5090728;28;20235;-82
2021/11/23 00:04:39;;;;;;;7.63;6.47;;;;;;;6.02;73.25;100218.16;5076894;28;20227;-82
2021/11/23 00:07:06;;;;;;;10.13;7.37;;;;;;;6.03;73.80;100225.94;5093752;23;20228;-82
2021/11/23 00:09:35;;;;;;;10.87;7.37;;;;;;;6.05;73.46;100221.28;5090618;28;20185;-82
2021/11/23 00:12:13;;;;;;;8.57;6.43;;;;;;;6.10;73.56;100236.72;5103583;22;20224;-82
2021/11/23 00:14:40;;;;;;;8.03;6.40;;;;;;;6.09;73.62;100227.06;5091474;28;20249;-82
2021/11/23 00:17:09;;;;;;;8.43;6.60;;;;;;;6.04;73.56;100235.59;5092625;28;20224;-81
2021/11/23 00:19:36;;;;;;;8.63;6.37;;;;;;;6.02;73.68;100226.13;5091791;28;20216;-82
2021/11/23 00:22:09;;;;;;;7.30;6.40;;;;;;;6.09;73.91;100235.06;5104243;28;20224;-82
2021/11/23 00:24:36;;;;;;;8.97;6.70;;;;;;;6.08;73.48;100236.88;5085957;28;20220;-82
2021/11/23 00:27:13;;;;;;;11.40;6.60;;;;;;;6.10;72.63;100245.53;5110921;28;20295;-81
2021/11/23 00:29:40;;;;;;;8.47;6.53;;;;;;;6.07;72.23;100251.19;5106961;23;20251;-82
2021/11/23 00:32:12;;;;;;;9.37;6.93;;;;;;;6.09;73.34;100256.34;5178704;22;20256;-82
2021/11/23 00:34:47;;;;;;;7.70;6.40;;;;;;;6.10;72.73;100250.84;5082823;23;20212;-82
2021/11/23 00:37:15;;;;;;;8.03;6.43;;;;;;;6.12;73.19;100266.63;5089350;28;20227;-82
2021/11/23 00:39:42;;;;;;;8.37;6.60;;;;;;;6.07;72.77;100263.66;5094330;28;20243;-81
2021/11/23 00:42:24;;;;;;;8.33;6.00;;;;;;;5.97;72.53;100255.09;5079052;28;20216;-81
2021/11/23 00:44:59;;;;;;;9.07;7.13;;;;;;;6.04;71.93;100274.66;5093733;28;20180;-82
2021/11/23 00:47:25;;;;;;;8.43;6.83;;;;;;;5.94;72.41;100264.22;5110910;28;20203;-82
2021/11/23 00:49:53;;;;;;;8.00;6.60;;;;;;;6.01;71.77;100264.38;5090089;28;20287;-82
2021/11/23 00:52:21;;;;;;;7.60;6.33;;;;;;;6.02;71.65;100272.16;5075130;28;20208;-82
2021/11/23 00:54:49;;;;;;;7.30;6.23;;;;;;;5.92;70.73;100257.44;5092747;28;20632;-82
2021/11/23 00:57:21;;;;;;;7.37;6.37;;;;;;;5.91;71.42;100266.41;5075751;28;20224;-82
2021/11/23 00:59:48;;;;;;;7.63;6.20;;;;;;;5.88;71.52;100250.81;5110406;28;20587;-81
2021/11/23 01:02:18;;;;;;;7.07;6.37;;;;;;;5.78;71.69;100260.81;5092970;28;20216;-82
2021/11/23 01:04:55;;;;;;;9.87;6.83;;;;;;;5.73;72.11;100253.34;5095407;28;20257;-81
2021/11/23 01:07:23;;;;;;;7.43;6.20;;;;;;;5.86;72.25;100268.72;5099390;22;20247;-81
2021/11/23 01:10:17;;;;;;;8.17;6.53;;;;;;;5.88;72.06;100261.47;5085909;28;20572;-81
2021/11/23 01:12:45;;;;;;;7.70;6.83;;;;;;;5.91;71.95;100277.88;5091550;28;20220;-81
2021/11/23 01:15:13;;;;;;;7.37;6.27;;;;;;;5.80;72.05;100272.91;5091891;28;20681;-81
2021/11/23 01:17:45;;;;;;;8.40;7.03;;;;;;;5.80;72.52;100288.88;5074486;28;20247;-81
2021/11/23 01:20:29;;;;;;;10.07;7.80;;;;;;;5.77;73.19;100286.56;5097612;22;20235;-81
2021/11/23 01:23:12;;;;;;;8.70;7.07;;;;;;;5.68;73.18;100285.78;5089571;28;20255;-82
2021/11/23 01:26:00;;;;;;;9.50;7.17;;;;;;;5.77;73.38;100289.22;5085282;28;20274;-82
2021/11/23 01:28:35;;;;;;;9.53;7.43;;;;;;;5.68;74.09;100285.78;5061077;23;20230;-81
2021/11/23 01:31:03;;;;;;;9.10;7.90;;;;;;;5.66;73.55;100281.59;5070961;28;20212;-81
2021/11/23 01:33:31;;;;;;;9.13;7.77;;;;;;;5.64;74.24;100297.75;5054521;28;20713;-82
2021/11/23 01:35:59;;;;;;;9.70;7.57;;;;;;;5.64;73.98;100296.91;5073295;23;20223;-82
2021/11/23 01:38:26;;;;;;;9.37;7.80;;;;;;;5.62;74.32;100298.91;5125182;28;20276;-81
2021/11/23 01:40:53;;;;;;;9.17;7.80;;;;;;;5.58;74.27;100281.66;5074492;28;20256;-82
2021/11/23 01:43:22;;;;;;;10.20;8.00;;;;;;;5.65;74.54;100291.41;5090217;28;20284;-82
2021/11/23 01:45:50;;;;;;;9.60;8.30;;;;;;;5.51;74.84;100284.16;5074442;23;20217;-82
2021/11/23 01:48:17;;;;;;;9.30;8.07;;;;;;;5.58;74.06;100295.78;5083836;28;20329;-81
2021/11/23 01:50:46;;;;;;;10.00;8.03;;;;;;;5.49;74.61;100283.50;5069875;28;20270;-81
2021/11/23 01:53:14;;;;;;;9.80;7.83;;;;;;;5.56;73.89;100297.75;5080711;22;20255;-82
2021/11/23 01:55:43;;;;;;;10.30;7.87;;;;;;;5.78;73.47;100301.53;5065751;28;20241;-82
2021/11/23 01:58:33;;;;;;;9.63;8.00;;;;;;;5.71;72.92;100298.72;5062968;28;20304;-81
2021/11/23 02:01:00;;;;;;;9.33;8.10;;;;;;;5.55;74.18;100288.13;5064994;28;20224;-82
2021/11/23 02:03:28;;;;;;;8.90;7.70;;;;;;;5.57;74.54;100296.75;5049078;28;20288;-82
2021/11/23 02:05:56;;;;;;;10.33;8.30;;;;;;;5.57;74.99;100302.09;5061485;28;20283;-82
2021/11/23 02:08:23;;;;;;;9.47;8.17;;;;;;;5.58;75.62;100305.56;5064421;28;20205;-83
2021/11/23 02:10:50;;;;;;;9.70;8.60;;;;;;;5.62;76.61;100301.56;5087557;23;20256;-82
2021/11/23 02:13:17;;;;;;;10.70;9.40;;;;;;;5.56;76.56;100300.41;5049065;28;20216;-82
2021/11/23 02:15:46;;;;;;;11.13;9.53;;;;;;;5.61;76.50;100305.22;5065766;28;20228;-82
2021/11/23 02:18:24;;;;;;;12.87;10.40;;;;;;;5.67;76.44;100308.03;5069291;28;20247;-82
2021/11/23 02:20:52;;;;;;;12.43;10.17;;;;;;;5.60;76.77;100309.69;5068330;28;20582;-82
2021/11/23 02:23:22;;;;;;;12.07;10.57;;;;;;;5.63;76.49;100312.03;5055197;28;20224;-80
2021/11/23 02:25:53;;;;;;;10.43;9.43;;;;;;;5.60;77.05;100300.94;5091007;28;20220;-82
2021/11/23 02:28:22;;;;;;;12.43;10.50;;;;;;;5.55;76.46;100297.94;5073850;28;20228;-81
2021/11/23 02:30:54;;;;;;;12.10;10.80;;;;;;;5.61;76.81;100316.69;5080126;23;20206;-82
2021/11/23 02:33:33;;;;;;;11.73;10.53;;;;;;;5.61;76.55;100316.69;5077018;23;20223;-81
2021/11/23 02:36:14;;;;;;;11.10;9.97;;;;;;;5.60;76.81;100315.03;5088869;28;20228;-81
2021/11/23 02:38:46;;;;;;;11.23;9.83;;;;;;;5.46;77.08;100321.03;5089467;28;20223;-81
2021/11/23 02:41:14;;;;;;;11.27;9.97;;;;;;;5.46;76.71;100306.94;5088700;28;20274;-82
2021/11/23 02:43:42;;;;;;;12.37;10.53;;;;;;;5.51;76.60;100324.03;5088854;28;20224;-82
2021/11/23 02:46:11;;;;;;;11.17;10.07;;;;;;;5.46;77.23;100314.91;5069700;28;20231;-82
2021/11/23 02:48:41;;;;;;;11.17;9.87;;;;;;;5.53;76.91;100310.56;5088532;28;20281;-82
2021/11/23 02:51:15;;;;;;;11.83;10.60;;;;;;;5.38;77.25;100313.09;5094731;22;20253;-82
2021/11/23 02:53:47;;;;;;;11.83;9.67;;;;;;;5.35;77.30;100317.94;5055487;28;20689;-82
2021/11/23 02:56:15;;;;;;;10.20;9.20;;;;;;;5.21;77.33;100319.44;5078445;23;20281;-81
2021/11/23 02:59:03;;;;;;;10.43;9.37;;;;;;;5.11;76.33;100324.09;5070962;28;20252;-81
2021/11/23 03:01:30;;;;;;;9.60;8.60;;;;;;;5.02;76.45;100302.03;5089622;28;20232;-82
2021/11/23 03:03:57;;;;;;;9.63;8.63;;;;;;;5.02;76.59;100322.44;5057902;28;20229;-82
2021/11/23 03:06:26;;;;;;;9.90;8.70;;;;;;;4.94;76.67;100314.50;5073526;28;20291;-82
2021/11/23 03:08:54;;;;;;;11.33;9.57;;;;;;;4.93;76.89;100329.59;5064154;23;20216;-82
2021/11/23 03:11:22;;;;;;;10.30;9.27;;;;;;;4.88;77.03;100315.97;5050030;28;20247;-82
2021/11/23 03:13:52;;;;;;;10.67;9.57;;;;;;;4.93;76.92;100328.75;5048234;28;20235;-82
2021/11/23 03:16:23;;;;;;;11.63;9.63;;;;;;;4.91;76.90;100320.94;5067639;28;20229;-82
2021/11/23 03:18:50;;;;;;;11.83;9.60;;;;;;;4.88;76.55;100323.94;5052879;28;20209;-82
2021/11/23 03:21:17;;;;;;;10.80;9.70;;;;;;;4.88;76.81;100322.13;5054235;28;20177;-81
2021/11/23 03:23:50;;;;;;;11.13;10.03;;;;;;;4.84;77.22;100328.78;5067912;28;20233;-82
2021/11/23 03:26:19;;;;;;;10.70;9.60;;;;;;;4.85;76.27;100325.09;5050198;28;20214;-81
2021/11/23 03:28:48;;;;;;;10.20;9.00;;;;;;;4.86;76.14;100332.06;5033026;28;20236;-82
2021/11/23 03:31:16;;;;;;;10.03;9.03;;;;;;;4.81;76.83;100328.25;5067102;28;20252;-82
2021/11/23 03:33:43;;;;;;;9.47;8.33;;;;;;;4.82;76.24;100335.22;5067406;28;20214;-81
2021/11/23 03:36:10;;;;;;;10.50;9.40;;;;;;;4.76;75.95;100327.91;5066004;28;20221;-82
2021/11/23 03:38:36;;;;;;;10.13;9.13;;;;;;;4.70;76.79;100333.91;5050272;28;20225;-82
2021/11/23 03:41:06;;;;;;;11.10;9.73;;;;;;;4.65;76.78;100330.91;5066246;28;20353;-82
2021/11/23 03:43:33;;;;;;;10.73;9.50;;;;;;;4.58;76.92;100330.72;5062138;28;20228;-82
2021/11/23 03:46:03;;;;;;;11.13;9.87;;;;;;;4.53;77.20;100329.53;5047110;28;20225;-81
2021/11/23 03:48:30;;;;;;;11.53;9.90;;;;;;;4.53;76.75;100327.72;5047879;28;20286;-82
2021/11/23 03:51:02;;;;;;;11.73;9.77;;;;;;;4.29;77.06;100315.25;5066041;28;20237;-82
2021/11/23 03:53:28;;;;;;;11.47;10.10;;;;;;;4.29;77.33;100323.19;5034543;28;20225;-82
2021/11/23 03:55:57;;;;;;;11.03;9.90;;;;;;;4.21;77.19;100322.34;5034085;28;20229;-82
2021/11/23 03:58:28;;;;;;;10.80;9.47;;;;;;;4.12;77.05;100334.78;5049273;28;20293;-82
2021/11/23 04:00:59;;;;;;;12.10;9.87;;;;;;;4.00;77.72;100351.97;5065734;28;20296;-82
2021/11/23 04:03:27;;;;;;;11.23;10.03;;;;;;;3.95;77.38;100330.41;5022882;28;20281;-81
2021/11/23 04:06:17;;;;;;;10.90;9.63;;;;;;;3.92;77.24;100347.44;5037592;28;20283;-82
2021/11/23 04:09:18;;;;;;;12.07;9.57;;;;;;;3.80;77.63;100346.09;5088943;28;20247;-82
2021/11/23 04:11:47;;;;;;;9.97;8.97;;;;;;;3.89;77.40;100349.59;5074971;28;20212;-81
2021/11/23 04:14:17;;;;;;;11.00;9.47;;;;;;;3.85;77.40;100357.03;5071620;28;20213;-82
2021/11/23 04:16:45;;;;;;;11.30;10.10;;;;;;;3.86;77.50;100363.19;5090440;28;20180;-80
2021/11/23 04:19:15;;;;;;;10.67;9.57;;;;;;;3.77;77.83;100357.00;5094579;22;20234;-81
2021/11/23 04:21:49;;;;;;;12.40;9.87;;;;;;;3.77;77.79;100353.53;5051211;28;20244;-82
2021/11/23 04:24:23;;;;;;;10.77;9.63;;;;;;;3.66;78.25;100359.09;5067425;28;20220;-81
2021/11/23 04:26:50;;;;;;;10.20;9.17;;;;;;;3.76;78.05;100363.28;5078356;28;20229;-81
2021/11/23 04:29:18;;;;;;;9.80;8.83;;;;;;;3.69;77.91;100362.25;5054248;28;20248;-82
2021/11/23 04:31:47;;;;;;;10.10;9.10;;;;;;;3.73;77.70;100371.56;5087261;28;20235;-82
2021/11/23 04:34:15;;;;;;;10.43;8.33;;;;;;;3.80;77.25;100369.94;5068705;28;20235;-81
2021/11/23 04:37:06;;;;;;;8.97;8.07;;;;;;;3.71;76.69;100367.41;5083827;22;20243;-81
2021/11/23 04:39:34;;;;;;;9.33;8.07;;;;;;;3.66;76.99;100381.13;5068137;28;20259;-81
2021/11/23 04:42:12;;;;;;;9.17;7.80;;;;;;;3.63;76.97;100378.81;5072428;28;20282;-82
2021/11/23 04:44:50;;;;;;;8.80;7.90;;;;;;;3.67;77.53;100385.44;5069974;28;20251;-81
2021/11/23 04:47:36;;;;;;;8.60;7.43;;;;;;;3.69;76.64;100401.16;5082459;23;20235;-81
2021/11/23 04:50:06;;;;;;;8.33;6.40;;;;;;;3.69;76.72;100395.88;5074471;28;20277;-81
2021/11/23 04:53:03;;;;;;;7.40;6.50;;;;;;;3.65;75.85;100399.81;5108705;23;20244;-82
2021/11/23 04:55:35;;;;;;;6.60;5.80;;;;;;;3.68;75.55;100412.78;5072623;28;20188;-81
2021/11/23 04:58:02;;;;;;;6.37;5.60;;;;;;;3.70;75.09;100408.13;5073239;28;20185;-81
2021/11/23 05:00:32;;;;;;;7.20;5.20;;;;;;;3.69;74.70;100407.31;5051146;23;20244;-81
2021/11/23 05:03:01;;;;;;;6.00;4.67;;;;;;;3.78;73.25;100397.59;5052911;23;20583;-81
2021/11/23 05:05:28;;;;;;;5.30;4.70;;;;;;;3.57;73.04;100386.53;5089032;23;20240;-81
2021/11/23 05:08:01;;;;;;;6.40;4.83;;;;;;;3.57;73.32;100411.22;5093168;28;20584;-81
2021/11/23 05:10:28;;;;;;;6.93;5.17;;;;;;;3.58;73.09;100404.09;5108472;28;20263;-82
2021/11/23 05:13:05;;;;;;;5.43;4.70;;;;;;;3.50;73.20;100408.34;5109085;28;20288;-81
2021/11/23 05:15:49;;;;;;;5.57;4.90;;;;;;;3.40;73.18;100396.19;5094243;28;20265;-81
2021/11/23 05:18:28;;;;;;;6.03;4.50;;;;;;;3.44;73.02;100411.63;5111006;28;20207;-81
2021/11/23 05:20:57;;;;;;;7.13;4.67;;;;;;;3.30;72.69;100404.25;5115674;28;20208;-81
2021/11/23 05:24:17;;;;;;;5.53;4.63;;;;;;;3.19;73.56;100415.06;5123664;23;20231;-81
2021/11/23 05:26:49;;;;;;;5.57;4.90;;;;;;;3.03;73.51;100388.47;5103953;22;20196;-81
2021/11/23 05:29:42;;;;;;;6.10;5.00;;;;;;;3.00;74.39;100413.41;5102873;22;21001;-81
2021/11/23 05:32:24;;;;;;;5.70;4.93;;;;;;;2.96;74.79;100413.88;5091026;22;20226;-81
2021/11/23 05:35:14;;;;;;;6.00;4.97;;;;;;;2.99;74.79;100424.97;5080112;28;20208;-82
2021/11/23 05:38:03;;;;;;;5.93;5.10;;;;;;;2.99;74.65;100424.97;5098689;28;20521;-81
2021/11/23 05:40:47;;;;;;;5.33;4.83;;;;;;;2.92;74.65;100433.69;5108755;22;20228;-81
2021/11/23 05:43:16;;;;;;;6.17;5.23;;;;;;;2.83;75.21;100432.78;5082117;22;20206;-81
2021/11/23 05:45:49;;;;;;;6.30;5.30;;;;;;;2.67;75.55;100422.84;5067681;23;20284;-81
2021/11/23 05:48:31;;;;;;;5.90;5.07;;;;;;;2.68;75.65;100436.94;5102243;22;20254;-81
2021/11/23 05:51:28;;;;;;;7.10;5.60;;;;;;;2.59;76.30;100445.75;5076467;28;20245;-81
2021/11/23 05:53:57;;;;;;;6.87;5.67;;;;;;;2.42;76.33;100433.34;5115277;28;20164;-81
2021/11/23 05:56:24;;;;;;;7.70;5.57;;;;;;;2.45;76.59;100441.81;5098092;28;20235;-81
2021/11/23 05:59:41;;;;;;;7.80;5.77;;;;;;;2.35;77.30;100443.66;5113932;28;20242;-81
2021/11/23 06:02:14;;;;;;;7.50;5.47;;;;;;;2.35;76.95;100448.13;5121962;22;20161;-81
2021/11/23 06:04:43;;;;;;;6.40;5.80;;;;;;;2.30;77.07;100455.66;5059121;28;20192;-81
2021/11/23 06:07:44;;;;;;;7.30;5.97;;;;;;;2.27;76.87;100462.09;5095694;28;20213;-81
2021/11/23 06:10:25;;;;;;;6.40;5.77;;;;;;;2.16;77.53;100465.72;5099178;22;20220;-81
2021/11/23 06:13:28;;;;;;;7.13;6.10;;;;;;;2.30;76.79;100468.88;5170016;23;20241;-81
2021/11/23 06:16:08;;;;;;;9.20;6.23;;;;;;;2.31;77.04;100473.19;5059165;23;20248;-82
2021/11/23 06:18:58;;;;;;;7.60;6.20;;;;;;;2.20;77.18;100466.28;5072866;28;20311;-81
2021/11/23 06:21:26;;;;;;;7.37;6.47;;;;;;;2.11;77.02;100459.22;5065147;28;20182;-81
2021/11/23 06:23:59;;;;;;;7.13;6.43;;;;;;;2.27;77.06;100477.94;5053365;28;20224;-81
2021/11/23 06:26:26;;;;;;;9.10;6.83;;;;;;;2.27;76.68;100477.09;5071831;28;20260;-81
2021/11/23 06:29:09;;;;;;;7.67;6.87;;;;;;;2.16;76.64;100473.66;5080008;23;20578;-82
2021/11/23 06:31:42;;;;;;;8.00;6.90;;;;;;;2.24;76.32;100485.34;5073300;28;20227;-81
2021/11/23 06:34:13;;;;;;;7.60;6.80;;;;;;;2.18;77.08;100486.75;5083151;22;20233;-81
2021/11/23 06:36:43;;;;;;;8.20;6.83;;;;;;;2.23;77.67;100500.38;5071878;28;20198;-81
2021/11/23 06:39:13;;;;;;;8.10;6.97;;;;;;;2.14;76.74;100496.78;5088137;28;20569;-81
2021/11/23 06:41:43;;;;;;;9.37;6.97;;;;;;;2.18;77.54;100503.44;5055801;28;20228;-81
2021/11/23 06:44:16;;;;;;;8.00;6.53;;;;;;;2.26;77.60;100513.28;5070904;28;20248;-81
2021/11/23 06:46:44;;;;;;;7.30;6.43;;;;;;;2.26;77.54;100507.16;5071725;28;20219;-81
2021/11/23 06:49:21;;;;;;;8.47;6.70;;;;;;;2.32;77.34;100514.53;5091300;28;20229;-82
2021/11/23 06:51:51;;;;;;;8.30;7.30;;;;;;;2.34;77.34;100501.97;5113712;23;20646;-81
2021/11/23 06:54:18;;;;;;;8.03;7.23;;;;;;;2.46;77.03;100500.84;5077631;28;20220;-81
2021/11/23 06:56:56;;;;;;;8.03;7.13;;;;;;;2.55;77.21;100516.66;5080185;28;20224;-81
2021/11/23 06:59:23;;;;;;;8.20;7.00;;;;;;;2.70;76.63;100514.34;5112157;28;20240;-81
2021/11/23 07:01:55;;;;;;;8.50;7.47;;;;;;;2.87;76.03;100523.31;5078012;28;20227;-81
2021/11/23 07:04:25;;;;;;;8.53;7.10;;;;;;;2.96;75.53;100519.75;5113534;28;20213;-81
2021/11/23 07:06:57;;;;;;;8.13;7.20;;;;;;;3.05;74.74;100532.09;5112635;28;20180;-81
2021/11/23 07:09:31;;;;;;;8.90;7.00;;;;;;;3.15;74.30;100516.97;5114648;28;20183;-81
2021/11/23 07:12:11;;;;;;;8.73;7.40;;;;;;;3.38;74.10;100535.91;5100648;22;20232;-81
2021/11/23 07:14:46;;;;;;;8.37;7.33;;;;;;;3.47;72.31;100540.28;5095175;28;20185;-82
2021/11/23 07:18:14;;;;;;;9.43;6.73;;;;;;;3.63;71.82;100521.06;5053219;28;20225;-81
2021/11/23 07:21:25;;;;;;;8.43;6.93;;;;;;;3.92;70.69;100526.91;5092882;28;20655;-81
2021/11/23 07:24:26;;;;;;;8.87;7.57;;;;;;;4.07;70.33;100533.31;5106170;22;20297;-81
2021/11/23 07:27:26;;;;;;;8.53;7.23;;;;;;;4.13;69.42;100538.00;5099622;22;20227;-81
2021/11/23 07:30:23;;;;;;;7.70;6.93;;;;;;;4.20;70.46;100539.03;5050856;28;20277;-81
2021/11/23 07:32:54;;;;;;;9.03;8.13;;;;;;;4.20;69.84;100544.31;5049878;28;20229;-81
2021/11/23 07:35:32;;;;;;;9.17;7.97;;;;;;;4.28;68.48;100538.25;5049317;28;20222;-81
2021/11/23 07:38:01;;;;;;;8.67;7.27;;;;;;;4.28;68.43;100531.13;5051294;28;20241;-81
2021/11/23 07:40:31;;;;;;;8.63;7.50;;;;;;;4.38;67.57;100534.50;5032645;28;20283;-82
2021/11/23 07:43:00;;;;;;;7.27;6.57;;;;;;;4.23;66.55;100512.19;5032608;28;20230;-82
2021/11/23 07:45:45;;;;;;;7.50;6.80;;;;;;;4.10;67.22;100516.28;5030458;28;20222;-81
2021/11/23 07:48:30;;;;;;;6.67;6.07;;;;;;;3.91;67.13;100514.66;5030481;28;20262;-81
2021/11/23 07:51:22;;;;;;;7.07;6.43;;;;;;;3.99;67.41;100525.31;5031058;28;20242;-81
2021/11/23 07:53:52;;;;;;;7.37;6.60;;;;;;;4.04;66.93;100523.03;5030948;28;20227;-81
2021/11/23 07:56:35;;;;;;;8.23;6.80;;;;;;;4.22;66.79;100541.53;5031310;28;20199;-81
2021/11/23 07:59:05;;;;;;;6.20;5.70;;;;;;;4.31;66.52;100540.59;5031252;28;20159;-81
2021/11/23 08:01:36;;;;;;;6.47;5.50;;;;;;;4.42;65.05;100541.16;5062547;23;20221;-81
2021/11/23 08:04:05;;;;;;;6.23;5.70;;;;;;;4.76;64.42;100554.41;5070344;28;20209;-81
2021/11/23 08:06:40;;;;;;;5.60;5.10;;;;;;;4.97;63.46;100551.34;5069977;28;20235;-81
2021/11/23 08:09:08;;;;;;;6.20;5.60;;;;;;;5.12;63.13;100543.59;5074218;23;20253;-81
2021/11/23 08:11:40;;;;;;;6.03;5.43;;;;;;;5.17;63.52;100547.41;5056148;28;20632;-82
2021/11/23 08:14:10;;;;;;;6.20;5.60;;;;;;;5.32;63.51;100539.63;5071667;28;20209;-81
2021/11/23 08:16:37;;;;;;;5.90;5.30;;;;;;;5.31;61.72;100530.84;5066928;28;20225;-82
2021/11/23 08:19:09;;;;;;;5.63;5.13;;;;;;;5.46;61.19;100544.28;5053207;28;20684;-81
2021/11/23 08:21:58;;;;;;;7.07;5.30;;;;;;;5.56;60.61;100550.28;5077898;28;20228;-81
2021/11/23 08:24:58;;;;;;;6.13;5.27;;;;;;;5.58;60.35;100552.78;5074031;28;20231;-81
2021/11/23 08:28:25;;;;;;;5.43;4.93;;;;;;;5.54;60.28;100546.97;5075520;28;20170;-81
2021/11/23 08:30:59;;;;;;;5.30;4.77;;;;;;;5.59;59.46;100557.13;5075396;28;20203;-81
2021/11/23 08:33:32;;;;;;;5.77;5.27;;;;;;;5.38;60.44;100533.66;5086427;22;20228;-81
2021/11/23 08:36:18;;;;;;;5.13;4.73;;;;;;;5.56;60.55;100560.09;5082243;22;20288;-81
2021/11/23 08:39:01;;;;;;;7.20;5.10;;;;;;;5.25;61.05;100528.00;5075057;28;20161;-81
2021/11/23 08:41:43;;;;;;;5.77;5.17;;;;;;;5.05;61.69;100553.19;5075164;28;20601;-81
2021/11/23 08:44:16;;;;;;;5.20;4.70;;;;;;;5.04;61.77;100547.03;5076433;22;20204;-81
2021/11/23 08:46:48;;;;;;;5.60;5.10;;;;;;;5.09;61.81;100560.66;5082128;28;20180;-81
2021/11/23 08:49:49;;;;;;;5.60;5.10;;;;;;;5.17;61.59;100567.84;5115102;28;20238;-82
2021/11/23 08:52:26;;;;;;;5.73;5.17;;;;;;;5.24;62.14;100564.34;5115179;28;20188;-81
2021/11/23 08:55:11;;;;;;;5.43;4.93;;;;;;;5.26;61.00;100554.41;5109658;22;20236;-81
2021/11/23 08:57:45;;;;;;;5.73;4.70;;;;;;;5.17;60.23;100552.72;5187256;22;20212;-81
2021/11/23 09:01:04;;;;;;;4.80;4.40;;;;;;;5.16;59.51;100561.69;5107517;22;20225;-81
2021/11/23 09:03:53;;;;;;;4.80;4.40;;;;;;;5.02;61.13;100554.34;5101732;22;20258;-81
2021/11/23 09:06:42;;;;;;;4.47;4.03;;;;;;;5.04;61.20;100559.50;5080789;23;20216;-81
2021/11/23 09:10:00;;;;;;;4.97;4.47;;;;;;;5.11;61.12;100561.34;5099291;22;20295;-81
2021/11/23 09:12:51;;;;;;;4.60;4.20;;;;;;;5.03;61.02;100558.66;5100710;28;20191;-82
2021/11/23 09:15:22;;;;;;;5.17;4.40;;;;;;;5.13;60.82;100563.84;5110382;28;20232;-81
2021/11/23 09:18:26;;;;;;;4.67;4.27;;;;;;;5.25;61.11;100581.97;5115244;28;20200;-81
2021/11/23 09:21:06;;;;;;;4.63;4.23;;;;;;;5.30;59.66;100587.63;5081527;28;20235;-81
2021/11/23 09:23:43;;;;;;;4.57;4.17;;;;;;;5.27;60.61;100584.47;5048585;23;20262;-81
2021/11/23 09:26:10;;;;;;;4.87;4.20;;;;;;;5.25;60.66;100570.50;5047786;22;20212;-81
2021/11/23 09:29:13;;;;;;;4.90;4.00;;;;;;;5.30;60.37;100568.19;5080969;23;20244;-81
2021/11/23 09:32:19;;;;;;;3.73;3.43;;;;;;;5.40;59.36;100576.84;5081494;22;20217;-81
2021/11/23 09:34:46;;;;;;;4.67;3.70;;;;;;;5.29;59.53;100570.03;5074607;28;20225;-81
2021/11/23 09:37:19;;;;;;;3.90;3.50;;;;;;;5.12;59.31;100560.34;5081972;22;20213;-81
2021/11/23 09:39:55;;;;;;;4.53;4.13;;;;;;;5.36;59.94;100585.31;5080675;22;20216;-81
2021/11/23 09:42:46;;;;;;;4.77;3.67;;;;;;;5.25;59.08;100574.00;5089122;28;20271;-80
2021/11/23 09:45:31;;;;;;;4.30;3.90;;;;;;;5.31;59.37;100584.00;5093647;28;20700;-81
2021/11/23 09:48:14;;;;;;;3.83;3.53;;;;;;;5.19;58.75;100556.03;5102568;22;20212;-80
2021/11/23 09:51:01;;;;;;;3.93;3.20;;;;;;;5.23;58.94;100554.72;5079568;28;20223;-81
2021/11/23 09:53:48;;;;;;;3.80;3.50;;;;;;;5.42;58.49;100569.53;5094025;28;20229;-81
2021/11/23 09:56:18;;;;;;;4.30;3.50;;;;;;;5.53;59.07;100571.06;5107911;22;20268;-81
2021/11/23 09:58:58;;;;;;;4.13;3.30;;;;;;;5.26;58.04;100543.78;5090581;22;20234;-80
2021/11/23 10:01:40;;;;;;;4.90;3.60;;;;;;;5.60;57.88;100562.25;5058939;28;20208;-81
2021/11/23 10:04:09;;;;;;;3.83;3.43;;;;;;;5.50;58.61;100552.78;5078122;28;20244;-81
2021/11/23 10:10:38;;;;;;;4.20;3.80;;;;;;;5.89;58.24;100556.47;5093414;22;20244;-80
2021/11/23 10:13:41;;;;;;;3.93;3.60;;;;;;;5.93;57.36;100556.97;5098397;28;20196;-81
2021/11/23 10:16:09;;;;;;;4.33;3.53;;;;;;;5.92;56.93;100545.53;5097998;28;20232;-81
2021/11/23 10:19:37;;;;;;;4.10;3.70;;;;;;;5.80;57.25;100551.28;5090054;23;20232;-81
2021/11/23 10:22:05;;;;;;;4.10;3.57;;;;;;;5.73;57.48;100543.16;5098132;28;20229;-80
2021/11/23 10:25:18;;;;;;;4.37;3.47;;;;;;;5.87;56.89;100529.22;5090625;23;20208;-81
2021/11/23 10:27:55;;;;;;;4.53;3.70;;;;;;;5.90;57.57;100536.88;5092078;23;20219;-81
2021/11/23 10:30:32;;;;;;;4.63;3.50;;;;;;;5.81;57.06;100537.00;5057940;23;20284;-81
2021/11/23 10:33:38;;;;;;;4.23;3.73;;;;;;;5.85;56.59;100535.66;5102396;22;20228;-81
2021/11/23 10:36:16;;;;;;;4.00;3.60;;;;;;;5.90;57.05;100533.38;5097392;28;20208;-82
2021/11/23 10:38:48;;;;;;;7.30;3.57;;;;;;;5.82;57.40;100518.22;5103003;28;20266;-81
2021/11/23 10:41:53;;;;;;;3.93;3.60;;;;;;;6.04;58.00;100524.72;5105155;28;20232;-81
2021/11/23 10:44:57;;;;;;;4.17;3.50;;;;;;;6.11;57.34;100521.19;5089737;22;20256;-81
2021/11/23 10:47:43;;;;;;;4.33;3.87;;;;;;;6.29;56.13;100521.00;5035092;28;20278;-81
2021/11/23 10:50:25;;;;;;;3.60;3.30;;;;;;;6.28;57.36;100508.69;5071033;23;20317;-81
2021/11/23 10:53:20;;;;;;;6.20;3.70;;;;;;;6.40;55.73;100511.81;5102502;22;20209;-81
2021/11/23 10:55:49;;;;;;;6.07;3.47;;;;;;;6.34;56.21;100513.34;5043387;23;20260;-81
2021/11/23 10:58:39;;;;;;;3.60;3.30;;;;;;;6.30;55.97;100514.66;5096725;23;20254;-82
2021/11/23 11:01:39;;;;;;;4.00;3.60;;;;;;;6.20;55.89;100500.75;5105720;22;20203;-81
2021/11/23 11:04:28;;;;;;;3.70;3.40;;;;;;;6.19;55.75;100491.09;5087361;22;20232;-81
2021/11/23 11:07:05;;;;;;;3.80;3.37;;;;;;;6.38;56.16;100509.34;5184525;22;20229;-81
2021/11/23 11:09:52;;;;;;;4.53;3.37;;;;;;;6.48;55.29;100509.97;5074070;22;20251;-82
2021/11/23 11:12:28;;;;;;;4.07;3.13;;;;;;;6.37;55.45;100493.53;5169653;22;20196;-82
2021/11/23 11:15:50;;;;;;;3.47;3.17;;;;;;;6.49;55.12;100500.97;5080761;22;20231;-81
2021/11/23 11:18:41;;;;;;;3.30;3.00;;;;;;;6.32;56.00;100493.22;5110210;22;20299;-81
2021/11/23 11:21:11;;;;;;;3.93;3.60;;;;;;;6.40;55.48;100493.19;5077482;22;20287;-81
2021/11/23 11:23:45;;;;;;;3.93;3.60;;;;;;;6.22;55.63;100481.94;5098494;28;20156;-81
2021/11/23 11:26:26;;;;;;;3.70;3.40;;;;;;;6.43;56.34;100496.34;5115043;28;20250;-81
2021/11/23 11:29:01;;;;;;;4.27;3.87;;;;;;;6.42;56.38;100473.38;5100002;28;20187;-81
2021/11/23 11:31:48;;;;;;;3.67;3.37;;;;;;;6.61;56.50;100488.13;5115604;28;20217;-81
2021/11/23 11:34:37;;;;;;;4.10;3.40;;;;;;;6.53;56.63;100488.16;5117589;22;20264;-81
2021/11/23 11:37:43;;;;;;;4.20;3.80;;;;;;;6.69;55.59;100488.06;5078536;28;20240;-81
2021/11/23 11:40:41;;;;;;;3.73;3.43;;;;;;;6.62;55.75;100476.47;5094952;28;20224;-81
2021/11/23 11:43:14;;;;;;;3.83;3.50;;;;;;;6.56;55.56;100475.34;5101035;22;20270;-81
2021/11/23 11:45:51;;;;;;;4.33;3.93;;;;;;;6.76;55.85;100480.25;5094570;28;20212;-81
2021/11/23 11:48:35;;;;;;;3.93;3.50;;;;;;;6.74;55.38;100461.75;5102016;22;20252;-81
2021/11/23 11:51:27;;;;;;;3.80;3.50;;;;;;;6.70;55.94;100457.78;5120742;22;20196;-81
2021/11/23 11:54:17;;;;;;;3.53;3.23;;;;;;;6.72;55.73;100463.75;5075873;23;20251;-81
2021/11/23 11:56:50;;;;;;;4.40;4.00;;;;;;;6.70;56.63;100456.94;5087756;22;20228;-81
2021/11/23 11:59:18;;;;;;;4.60;4.20;;;;;;;6.78;56.20;100459.56;5093700;28;20279;-81
2021/11/23 12:02:19;;;;;;;4.93;4.07;;;;;;;6.79;56.52;100450.56;5122968;22;20216;-81
2021/11/23 12:05:19;;;;;;;4.30;3.90;;;;;;;6.80;56.16;100442.44;5110622;28;20204;-81
2021/11/23 12:07:57;;;;;;;4.57;4.10;;;;;;;6.85;56.42;100447.22;5106518;22;20293;31
2021/11/23 12:10:32;;;;;;;4.07;3.70;;;;;;;7.00;55.87;100454.25;5027720;28;20581;-81
2021/11/23 12:13:24;;;;;;;5.87;4.00;;;;;;;7.03;55.77;100445.09;5044044;22;20218;-81
2021/11/23 12:16:14;;;;;;;5.30;4.40;;;;;;;6.97;56.40;100445.81;5097532;22;20232;-81
2021/11/23 12:19:35;;;;;;;4.00;3.60;;;;;;;7.02;56.15;100446.94;5080699;28;20272;-82
2021/11/23 12:22:48;;;;;;;5.13;4.57;;;;;;;7.00;56.87;100450.75;5099563;22;20221;-81
2021/11/23 12:25:20;;;;;;;5.37;4.70;;;;;;;7.11;56.35;100453.03;5094442;28;20231;-81
2021/11/23 12:27:50;;;;;;;5.23;4.53;;;;;;;6.91;56.35;100435.84;5094400;28;20185;-81